createdAt,value
2019-01-02T00:00:28.031Z,99.80
2019-01-02T00:02:56.627Z,99.90
2019-01-02T00:05:25.221Z,99.90
2019-01-02T00:07:53.797Z,99.00
2019-01-02T00:10:22.747Z,97.80
2019-01-02T00:12:51.324Z,99.90
2019-01-02T00:15:20.192Z,99.90
2019-01-02T00:17:49.059Z,99.90
2019-01-02T00:20:21.124Z,99.90
2019-01-02T00:22:50.255Z,99.90
2019-01-02T00:25:18.920Z,99.90
2019-01-02T00:27:47.480Z,99.90
2019-01-02T00:30:16.091Z,99.90
2019-01-02T00:32:45.024Z,99.90
2019-01-02T00:35:13.628Z,99.90
2019-01-02T00:37:42.175Z,99.90
2019-01-02T00:40:11.901Z,99.90
2019-01-02T00:42:40.855Z,99.90
2019-01-02T00:45:09.669Z,99.90
2019-01-02T00:47:38.636Z,99.90
2019-01-02T00:50:10.331Z,99.90
2019-01-02T00:52:39.304Z,99.90
2019-01-02T00:55:08.728Z,99.90
2019-01-02T00:57:37.724Z,99.90
2019-01-02T01:00:12.577Z,99.90
2019-01-02T01:02:41.583Z,99.90
2019-01-02T01:05:10.248Z,99.90
2019-01-02T01:07:39.196Z,99.90
2019-01-02T01:10:16.589Z,99.90
2019-01-02T01:12:45.803Z,99.90
2019-01-02T01:15:16.065Z,99.90
2019-01-02T01:17:44.948Z,99.90
2019-01-02T01:20:15.870Z,99.90
2019-01-02T01:22:44.521Z,99.90
2019-01-02T01:25:14.603Z,99.90
2019-01-02T01:27:55.079Z,99.90
2019-01-02T01:30:23.676Z,99.90
2019-01-02T01:32:52.280Z,99.90
2019-01-02T01:35:21.026Z,99.90
2019-01-02T01:37:50.186Z,99.90
2019-01-02T01:40:18.919Z,99.90
2019-01-02T01:42:47.492Z,99.90
2019-01-02T01:45:16.387Z,99.90
2019-01-02T01:47:45.130Z,99.90
2019-01-02T01:50:14.189Z,99.90
2019-01-02T01:52:42.909Z,99.90
2019-01-02T01:55:14.020Z,99.90
2019-01-02T01:59:09.573Z,99.90
2019-01-02T02:00:17.075Z,99.90
2019-01-02T02:02:45.612Z,99.90
2019-01-02T02:05:14.200Z,99.90
2019-01-02T02:07:42.838Z,99.90
2019-01-02T02:10:15.856Z,99.90
2019-01-02T02:12:44.464Z,99.90
2019-01-02T02:15:13.276Z,99.90
2019-01-02T02:17:42.289Z,99.90
2019-01-02T02:20:13.325Z,99.90
2019-01-02T02:22:41.794Z,99.90
2019-01-02T02:25:15.239Z,99.90
2019-01-02T02:27:46.307Z,98.80
2019-01-02T02:30:15.905Z,97.90
2019-01-02T02:32:45.525Z,99.00
2019-01-02T02:35:14.716Z,97.40
2019-01-02T02:37:43.308Z,97.80
2019-01-02T02:40:14.199Z,98.20
2019-01-02T02:42:42.906Z,97.20
2019-01-02T02:45:12.856Z,98.30
2019-01-02T02:47:41.831Z,97.10
2019-01-02T02:50:13.321Z,97.00
2019-01-02T02:52:41.976Z,97.00
2019-01-02T02:55:13.378Z,98.20
2019-01-02T02:57:41.960Z,98.20
2019-01-02T03:00:15.066Z,99.90
2019-01-02T03:02:43.828Z,99.90
2019-01-02T03:05:14.611Z,99.60
2019-01-02T03:07:43.561Z,99.90
2019-01-02T03:10:14.455Z,99.90
2019-01-02T03:12:43.423Z,99.90
2019-01-02T03:15:12.535Z,99.90
2019-01-02T03:17:41.190Z,99.90
2019-01-02T03:20:12.556Z,99.90
2019-01-02T03:22:41.571Z,99.80
2019-01-02T03:25:12.454Z,99.90
2019-01-02T03:27:41.343Z,99.90
2019-01-02T03:30:13.183Z,99.90
2019-01-02T03:32:41.947Z,99.90
2019-01-02T03:35:10.914Z,99.80
2019-01-02T03:37:39.491Z,99.90
2019-01-02T03:40:10.583Z,99.90
2019-01-02T03:42:39.235Z,99.90
2019-01-02T03:45:10.613Z,99.60
2019-01-02T03:47:39.188Z,99.90
2019-01-02T03:50:10.828Z,99.90
2019-01-02T03:52:39.408Z,99.10
2019-01-02T03:55:09.624Z,99.20
2019-01-02T03:57:38.363Z,98.70
2019-01-02T04:00:10.081Z,97.30
2019-01-02T04:02:38.647Z,98.90
2019-01-02T04:05:11.451Z,99.50
2019-01-02T04:07:41.484Z,99.90
2019-01-02T04:10:13.116Z,99.80
2019-01-02T04:12:41.691Z,99.40
2019-01-02T04:15:10.402Z,99.90
2019-01-02T04:17:38.975Z,99.60
2019-01-02T04:20:08.476Z,99.90
2019-01-02T04:22:37.060Z,99.20
2019-01-02T04:25:07.764Z,99.80
2019-01-02T04:27:36.406Z,99.90
2019-01-02T04:30:07.963Z,99.10
2019-01-02T04:32:36.559Z,97.60
2019-01-02T04:35:05.960Z,99.40
2019-01-02T04:37:34.537Z,97.40
2019-01-02T04:40:03.121Z,97.50
2019-01-02T04:42:31.721Z,98.10
2019-01-02T04:45:00.257Z,98.90
2019-01-02T04:47:28.837Z,99.10
2019-01-02T04:49:57.419Z,98.70
2019-01-02T04:52:25.989Z,99.60
2019-01-02T04:54:54.555Z,99.40
2019-01-02T04:57:23.121Z,99.90
2019-01-02T04:59:51.701Z,99.90
2019-01-02T05:02:20.260Z,99.30
2019-01-02T05:04:48.841Z,99.90
2019-01-02T05:07:17.406Z,99.90
2019-01-02T05:09:46.005Z,99.90
2019-01-02T05:12:14.572Z,99.90
2019-01-02T05:14:43.220Z,99.90
2019-01-02T05:17:11.784Z,99.90
2019-01-02T05:19:40.376Z,99.90
2019-01-02T05:22:08.941Z,99.90
2019-01-02T05:24:37.521Z,99.90
2019-01-02T05:27:06.108Z,99.80
2019-01-02T05:29:34.696Z,99.90
2019-01-02T05:32:03.268Z,99.00
2019-01-02T05:34:31.853Z,97.50
2019-01-02T05:37:00.425Z,98.50
2019-01-02T05:39:29.011Z,97.80
2019-01-02T05:41:57.566Z,98.10
2019-01-02T05:44:26.158Z,97.90
2019-01-02T05:46:54.713Z,98.60
2019-01-02T05:49:23.288Z,97.80
2019-01-02T05:51:51.857Z,98.70
2019-01-02T05:54:20.647Z,96.90
2019-01-02T05:56:49.192Z,97.40
2019-01-02T05:59:17.777Z,96.50
2019-01-02T06:01:46.324Z,97.00
2019-01-02T06:04:14.908Z,96.40
2019-01-02T06:06:43.464Z,97.40
2019-01-02T06:09:12.021Z,96.40
2019-01-02T06:11:40.595Z,97.00
2019-01-02T06:14:09.143Z,97.40
2019-01-02T06:16:37.719Z,97.00
2019-01-02T06:19:06.280Z,96.20
2019-01-02T06:21:34.861Z,96.20
2019-01-02T06:24:03.560Z,96.00
2019-01-02T06:26:32.135Z,96.20
2019-01-02T06:29:00.689Z,95.70
2019-01-02T06:31:29.259Z,95.70
2019-01-02T06:33:57.811Z,96.20
2019-01-02T06:36:27.161Z,96.80
2019-01-02T06:38:55.739Z,96.40
2019-01-02T06:41:24.316Z,97.10
2019-01-02T06:43:52.867Z,96.00
2019-01-02T06:46:21.444Z,96.80
2019-01-02T06:48:49.999Z,96.90
2019-01-02T06:51:18.576Z,96.50
2019-01-02T06:53:47.126Z,95.90
2019-01-02T06:56:15.700Z,96.10
2019-01-02T06:58:44.261Z,95.80
2019-01-02T07:01:12.849Z,96.10
2019-01-02T07:03:41.398Z,96.10
2019-01-02T07:06:09.977Z,96.40
2019-01-02T07:08:38.526Z,95.60
2019-01-02T07:11:07.104Z,95.40
2019-01-02T07:13:35.667Z,97.10
2019-01-02T07:16:04.384Z,95.80
2019-01-02T07:18:32.941Z,97.40
2019-01-02T07:21:01.516Z,97.70
2019-01-02T07:23:30.067Z,97.90
2019-01-02T07:25:58.720Z,97.80
2019-01-02T07:28:27.273Z,98.10
2019-01-02T07:30:55.851Z,98.80
2019-01-02T07:33:27.476Z,98.60
2019-01-02T07:36:15.436Z,98.90
2019-01-02T07:38:53.270Z,99.00
2019-01-02T07:41:39.802Z,99.40
2019-01-02T07:44:19.944Z,99.20
2019-01-02T07:47:09.615Z,99.00
2019-01-02T07:49:53.041Z,99.10
2019-01-02T07:52:40.911Z,99.30
2019-01-02T07:55:36.613Z,98.70
2019-01-02T07:58:28.833Z,98.00
2019-01-02T08:01:09.432Z,97.80
2019-01-02T08:03:46.600Z,97.20
2019-01-02T08:06:30.019Z,97.70
2019-01-02T08:09:16.495Z,97.50
2019-01-02T08:11:51.012Z,96.90
2019-01-02T08:14:41.924Z,97.30
2019-01-02T08:17:28.502Z,96.20
2019-01-02T08:20:19.108Z,96.80
2019-01-02T08:23:15.068Z,95.00
2019-01-02T08:26:03.038Z,95.80
2019-01-02T08:28:52.445Z,94.50
2019-01-02T08:31:26.976Z,94.70
2019-01-02T08:34:24.320Z,93.80
2019-01-02T08:37:05.015Z,92.60
2019-01-02T08:40:09.956Z,92.30
2019-01-02T08:43:02.127Z,91.70
2019-01-02T08:45:51.563Z,90.80
2019-01-02T08:48:44.423Z,89.00
2019-01-02T08:51:42.797Z,85.50
2019-01-02T08:54:17.360Z,83.30
2019-01-02T08:56:49.009Z,81.80
2019-01-02T08:59:47.709Z,92.50
2019-01-02T09:02:37.209Z,87.70
2019-01-02T09:05:33.197Z,89.80
2019-01-02T09:08:16.108Z,85.30
2019-01-02T09:10:56.400Z,87.70
2019-01-02T09:13:33.540Z,85.90
2019-01-02T09:16:23.071Z,85.90
2019-01-02T09:19:26.619Z,84.00
2019-01-02T09:22:33.137Z,80.20
2019-01-02T09:25:07.507Z,77.30
2019-01-02T09:27:59.820Z,73.80
2019-01-02T09:30:48.055Z,68.80
2019-01-02T09:33:19.683Z,71.10
2019-01-02T09:36:16.968Z,69.60
2019-01-02T09:39:04.187Z,69.50
2019-01-02T09:41:41.497Z,71.90
2019-01-02T09:44:35.680Z,73.90
2019-01-02T09:47:25.157Z,74.50
2019-01-02T09:50:14.709Z,76.20
2019-01-02T09:53:07.514Z,79.40
2019-01-02T09:55:44.746Z,79.60
2019-01-02T09:58:22.152Z,78.80
2019-01-02T10:00:53.807Z,80.50
2019-01-02T10:03:49.497Z,79.70
2019-01-02T10:06:32.897Z,76.40
2019-01-02T10:09:13.343Z,72.70
2019-01-02T10:12:10.519Z,71.10
2019-01-02T10:14:53.923Z,71.10
2019-01-02T10:17:34.587Z,68.20
2019-01-02T10:20:21.285Z,68.40
2019-01-02T10:23:08.232Z,68.20
2019-01-02T10:25:39.860Z,65.40
2019-01-02T10:28:17.195Z,65.20
2019-01-02T10:31:01.051Z,63.70
2019-01-02T10:33:35.561Z,67.30
2019-01-02T10:36:10.157Z,68.30
2019-01-02T10:38:41.791Z,66.60
2019-01-02T10:41:15.932Z,64.30
2019-01-02T10:43:59.638Z,65.90
2019-01-02T10:46:46.562Z,63.90
2019-01-02T10:49:33.277Z,65.50
2019-01-02T10:52:39.680Z,64.20
2019-01-02T10:55:17.245Z,64.10
2019-01-02T10:58:05.493Z,61.80
2019-01-02T11:00:48.903Z,65.40
2019-01-02T11:03:32.540Z,63.00
2019-01-02T11:06:22.228Z,64.10
2019-01-02T11:09:13.552Z,66.40
2019-01-02T11:11:53.939Z,67.50
2019-01-02T11:14:37.572Z,67.90
2019-01-02T11:17:15.140Z,66.00
2019-01-02T11:19:52.609Z,68.10
2019-01-02T11:22:24.246Z,65.30
2019-01-02T11:25:12.552Z,63.60
2019-01-02T11:27:49.876Z,64.30
2019-01-02T11:30:39.795Z,64.70
2019-01-02T11:33:20.186Z,63.70
2019-01-02T11:36:03.584Z,64.60
2019-01-02T11:38:35.234Z,66.10
2019-01-02T11:41:12.800Z,67.10
2019-01-02T11:44:21.189Z,64.70
2019-01-02T11:46:46.616Z,68.30
2019-01-02T11:49:15.201Z,67.40
2019-01-02T11:51:43.754Z,69.80
2019-01-02T11:54:12.332Z,69.80
2019-01-02T11:56:40.955Z,71.10
2019-01-02T11:59:12.129Z,72.10
2019-01-02T12:01:40.912Z,72.40
2019-01-02T12:04:09.535Z,73.20
2019-01-02T12:06:38.147Z,72.50
2019-01-02T12:09:07.736Z,71.20
2019-01-02T12:11:36.380Z,69.50
2019-01-02T12:14:04.996Z,72.50
2019-01-02T12:16:33.576Z,70.10
2019-01-02T12:19:02.397Z,73.50
2019-01-02T12:21:30.964Z,73.40
2019-01-02T12:23:59.517Z,74.50
2019-01-02T12:26:28.162Z,79.30
2019-01-02T12:28:56.708Z,87.30
2019-01-02T12:31:25.311Z,91.90
2019-01-02T12:33:53.845Z,94.30
2019-01-02T12:36:22.425Z,96.20
2019-01-02T12:38:50.981Z,99.90
2019-01-02T12:41:19.568Z,99.90
2019-01-02T12:43:48.111Z,99.90
2019-01-02T12:46:16.896Z,99.90
2019-01-02T12:48:45.448Z,99.90
2019-01-02T12:51:14.168Z,99.90
2019-01-02T12:53:43.856Z,99.90
2019-01-02T12:56:12.505Z,99.90
2019-01-02T12:58:41.059Z,99.90
2019-01-02T13:01:11.580Z,99.90
2019-01-02T13:03:55.448Z,99.90
2019-01-02T13:06:48.215Z,99.90
2019-01-02T13:09:25.441Z,99.90
2019-01-02T13:11:57.120Z,99.90
2019-01-02T13:14:37.984Z,99.90
2019-01-02T13:17:18.460Z,99.90
2019-01-02T13:19:50.108Z,99.90
2019-01-02T13:22:44.038Z,99.90
2019-01-02T13:25:24.367Z,99.90
2019-01-02T13:27:58.599Z,99.90
2019-01-02T13:30:56.933Z,99.90
2019-01-02T13:33:28.579Z,99.90
2019-01-02T13:36:06.220Z,99.90
2019-01-02T13:38:37.861Z,99.90
2019-01-02T13:41:12.189Z,99.90
2019-01-02T13:43:55.922Z,99.90
2019-01-02T13:46:56.104Z,99.90
2019-01-02T13:49:42.671Z,99.90
2019-01-02T13:52:11.391Z,99.90
2019-01-02T13:54:39.968Z,99.90
2019-01-02T13:57:08.613Z,99.90
2019-01-02T13:59:37.187Z,99.90
2019-01-02T14:02:05.822Z,99.90
2019-01-02T14:04:35.334Z,99.90
2019-01-02T14:07:04.084Z,99.90
2019-01-02T14:09:32.707Z,99.90
2019-01-02T14:12:01.259Z,99.90
2019-01-02T14:14:29.833Z,99.90
2019-01-02T14:16:58.409Z,99.90
2019-01-02T14:19:26.983Z,99.90
2019-01-02T14:21:55.856Z,99.90
2019-01-02T14:24:24.517Z,99.90
2019-01-02T14:26:54.740Z,99.90
2019-01-02T14:29:23.397Z,99.90
2019-01-02T14:31:51.984Z,99.90
2019-01-02T14:34:20.568Z,99.90
2019-01-02T14:36:49.205Z,99.90
2019-01-02T14:39:17.779Z,99.90
2019-01-02T14:41:46.341Z,99.90
2019-01-02T14:44:15.002Z,99.90
2019-01-02T14:46:43.554Z,99.90
2019-01-02T14:49:12.135Z,99.90
2019-01-02T14:51:40.724Z,99.90
2019-01-02T14:54:09.351Z,99.90
2019-01-02T14:56:37.988Z,97.60
2019-01-02T14:59:06.723Z,97.90
2019-01-02T15:01:35.313Z,98.10
2019-01-02T15:04:03.895Z,97.20
2019-01-02T15:06:32.464Z,97.70
2019-01-02T15:09:01.030Z,97.70
2019-01-02T15:11:29.697Z,98.00
2019-01-02T15:13:58.302Z,98.80
2019-01-02T15:16:26.854Z,98.70
2019-01-02T15:18:58.686Z,99.60
2019-01-02T15:21:27.262Z,99.10
2019-01-02T15:23:55.820Z,99.30
2019-01-02T15:26:24.405Z,99.90
2019-01-02T15:28:53.037Z,99.90
2019-01-02T15:31:21.638Z,99.90
2019-01-02T15:33:50.379Z,99.90
2019-01-02T15:36:18.963Z,99.90
2019-01-02T15:38:47.531Z,99.90
2019-01-02T15:41:16.135Z,99.90
2019-01-02T15:43:44.678Z,99.90
2019-01-02T15:46:13.276Z,99.90
2019-01-02T15:48:41.832Z,99.90
2019-01-02T15:51:10.440Z,99.90
2019-01-02T15:53:39.068Z,99.50
2019-01-02T15:56:07.705Z,99.60
2019-01-02T15:58:36.302Z,99.90
2019-01-02T16:01:04.941Z,99.50
2019-01-02T16:03:33.611Z,99.60
2019-01-02T16:06:02.171Z,98.50
2019-01-02T16:08:30.756Z,96.90
2019-01-02T16:10:59.325Z,94.80
2019-01-02T16:13:27.939Z,94.40
2019-01-02T16:15:56.769Z,95.00
2019-01-02T16:18:25.390Z,94.90
2019-01-02T16:20:54.009Z,94.90
2019-01-02T16:23:30.213Z,94.10
2019-01-02T16:25:57.734Z,94.70
2019-01-02T16:28:26.320Z,95.20
2019-01-02T16:30:54.938Z,94.50
2019-01-02T16:33:23.535Z,95.40
2019-01-02T16:35:52.184Z,95.40
2019-01-02T16:38:20.783Z,95.90
2019-01-02T16:40:49.543Z,96.10
2019-01-02T16:43:19.458Z,96.30
2019-01-02T16:45:49.565Z,96.60
2019-01-02T16:48:29.769Z,97.10
2019-01-02T16:51:01.525Z,97.60
2019-01-02T16:53:30.286Z,97.90
2019-01-02T16:55:58.990Z,98.60
2019-01-02T16:58:27.718Z,98.70
2019-01-02T17:00:56.418Z,99.60
2019-01-02T17:03:25.099Z,99.80
2019-01-02T17:05:53.721Z,99.90
2019-01-02T17:08:22.372Z,99.90
2019-01-02T17:10:51.084Z,99.90
2019-01-02T17:13:19.762Z,99.90
2019-01-02T17:15:48.523Z,99.90
2019-01-02T17:18:17.132Z,99.80
2019-01-02T17:20:45.807Z,99.50
2019-01-02T17:23:14.397Z,99.20
2019-01-02T17:25:43.018Z,98.70
2019-01-02T17:28:11.658Z,98.50
2019-01-02T17:30:40.261Z,98.40
2019-01-02T17:33:08.845Z,98.50
2019-01-02T17:35:37.460Z,98.00
2019-01-02T17:38:06.049Z,97.60
2019-01-02T17:40:34.790Z,97.30
2019-01-02T17:43:03.441Z,96.30
2019-01-02T17:45:32.157Z,97.10
2019-01-02T17:48:00.722Z,95.30
2019-01-02T17:50:29.303Z,94.60
2019-01-02T17:52:57.913Z,95.20
2019-01-02T17:55:26.525Z,95.30
2019-01-02T17:57:55.213Z,95.70
2019-01-02T18:00:23.843Z,95.60
2019-01-02T18:02:52.436Z,95.80
2019-01-02T18:05:21.086Z,96.30
2019-01-02T18:07:49.696Z,96.70
2019-01-02T18:10:18.278Z,97.10
2019-01-02T18:12:46.878Z,96.80
2019-01-02T18:15:15.489Z,99.90
2019-01-02T18:17:44.288Z,99.90
2019-01-02T18:20:13.012Z,98.60
2019-01-02T18:22:41.734Z,97.90
2019-01-02T18:25:10.309Z,96.10
2019-01-02T18:27:38.922Z,96.90
2019-01-02T18:30:11.768Z,96.60
2019-01-02T18:32:40.454Z,96.20
2019-01-02T18:35:09.183Z,95.90
2019-01-02T18:37:37.823Z,95.40
2019-01-02T18:40:06.518Z,95.00
2019-01-02T18:42:35.077Z,94.80
2019-01-02T18:45:03.767Z,94.50
2019-01-02T18:47:32.407Z,94.40
2019-01-02T18:50:01.126Z,94.00
2019-01-02T18:52:29.708Z,93.70
2019-01-02T18:54:58.297Z,94.20
2019-01-02T18:57:26.996Z,94.00
2019-01-02T18:59:55.617Z,94.00
2019-01-02T19:02:24.230Z,94.50
2019-01-02T19:04:52.803Z,93.90
2019-01-02T19:07:21.496Z,94.20
2019-01-02T19:09:50.065Z,93.60
2019-01-02T19:12:18.702Z,93.20
2019-01-02T19:14:47.300Z,93.20
2019-01-02T19:17:15.888Z,92.80
2019-01-02T19:19:44.482Z,92.30
2019-01-02T19:22:13.053Z,92.50
2019-01-02T19:24:41.666Z,92.60
2019-01-02T19:27:10.254Z,91.70
2019-01-02T19:29:38.845Z,92.00
2019-01-02T19:32:07.425Z,92.30
2019-01-02T19:34:36.059Z,92.30
2019-01-02T19:37:04.670Z,92.30
2019-01-02T19:39:33.276Z,92.00
2019-01-02T19:42:01.836Z,92.10
2019-01-02T19:44:30.445Z,91.90
2019-01-02T19:46:59.030Z,91.50
2019-01-02T19:49:27.721Z,91.50
2019-01-02T19:51:56.247Z,91.60
2019-01-02T19:54:24.882Z,90.90
2019-01-02T19:56:53.449Z,91.30
2019-01-02T19:59:22.061Z,91.40
2019-01-02T20:01:50.650Z,91.40
2019-01-02T20:04:19.255Z,91.90
2019-01-02T20:06:47.974Z,92.70
2019-01-02T20:09:16.584Z,92.40
2019-01-02T20:11:45.163Z,92.70
2019-01-02T20:14:13.762Z,92.80
2019-01-02T20:16:42.349Z,92.20
2019-01-02T20:19:10.990Z,92.00
2019-01-02T20:21:39.539Z,92.60
2019-01-02T20:24:08.491Z,92.60
2019-01-02T20:26:36.998Z,92.80
2019-01-02T20:29:05.620Z,92.20
2019-01-02T20:31:34.190Z,92.90
2019-01-02T20:34:02.793Z,92.60
2019-01-02T20:36:31.394Z,92.90
2019-01-02T20:38:59.987Z,92.70
2019-01-02T20:41:28.548Z,92.10
2019-01-02T20:43:57.226Z,91.80
2019-01-02T20:46:25.784Z,91.70
2019-01-02T20:48:54.402Z,91.60
2019-01-02T20:51:22.983Z,91.70
2019-01-02T20:53:51.577Z,91.80
2019-01-02T20:56:20.207Z,92.30
2019-01-02T20:58:48.788Z,92.10
2019-01-02T21:01:17.359Z,92.20
2019-01-02T21:03:45.945Z,91.90
2019-01-02T21:06:14.558Z,91.90
2019-01-02T21:08:43.118Z,92.20
2019-01-02T21:11:11.718Z,92.00
2019-01-02T21:13:40.356Z,91.90
2019-01-02T21:16:09.009Z,91.70
2019-01-02T21:18:37.580Z,92.00
2019-01-02T21:21:06.203Z,91.60
2019-01-02T21:23:34.784Z,91.70
2019-01-02T21:26:03.374Z,91.80
2019-01-02T21:28:31.998Z,91.10
2019-01-02T21:31:00.574Z,91.10
2019-01-02T21:33:29.153Z,91.40
2019-01-02T21:35:57.817Z,91.40
2019-01-02T21:38:26.376Z,91.70
2019-01-02T21:40:55.025Z,91.70
2019-01-02T21:43:23.620Z,91.70
2019-01-02T21:45:52.153Z,91.50
2019-01-02T21:48:20.838Z,91.10
2019-01-02T21:50:49.456Z,91.10
2019-01-02T21:53:18.041Z,90.30
2019-01-02T21:55:46.701Z,91.20
2019-01-02T21:58:15.367Z,91.10
2019-01-02T22:00:44.070Z,90.50
2019-01-02T22:03:12.631Z,90.40
2019-01-02T22:05:41.233Z,91.10
2019-01-02T22:08:09.811Z,91.10
2019-01-02T22:10:38.404Z,90.50
2019-01-02T22:13:07.053Z,90.80
2019-01-02T22:15:35.649Z,91.40
2019-01-02T22:18:04.251Z,92.10
2019-01-02T22:20:32.884Z,92.40
2019-01-02T22:23:01.496Z,92.60
2019-01-02T22:25:30.088Z,92.80
2019-01-02T22:27:58.727Z,93.10
2019-01-02T22:30:27.324Z,93.10
2019-01-02T22:32:55.949Z,94.10
2019-01-02T22:35:24.530Z,93.50
2019-01-02T22:37:53.162Z,94.20
2019-01-02T22:40:21.850Z,94.80
2019-01-02T22:42:50.474Z,95.50
2019-01-02T22:45:19.049Z,95.20
2019-01-02T22:47:47.719Z,96.00
2019-01-02T22:50:16.280Z,95.20
2019-01-02T22:52:44.906Z,94.50
2019-01-02T22:55:13.476Z,94.40
2019-01-02T22:57:42.066Z,94.70
2019-01-02T23:00:12.833Z,94.20
2019-01-02T23:02:43.136Z,94.20
2019-01-02T23:05:13.344Z,93.90
2019-01-02T23:07:43.617Z,93.00
2019-01-02T23:10:17.031Z,93.40
2019-01-02T23:12:53.178Z,93.20
2019-01-02T23:15:24.227Z,92.80
2019-01-02T23:17:57.090Z,92.70
2019-01-02T23:20:45.550Z,92.30
2019-01-02T23:23:31.059Z,92.60
2019-01-02T23:26:17.620Z,92.10
2019-01-02T23:28:50.532Z,92.50
2019-01-02T23:31:23.755Z,93.40
2019-01-02T23:33:54.008Z,93.50
2019-01-02T23:36:26.684Z,93.90
2019-01-02T23:38:59.983Z,93.80
2019-01-02T23:41:30.233Z,94.60
2019-01-02T23:44:06.641Z,94.00
2019-01-02T23:46:36.875Z,93.20
2019-01-02T23:49:09.906Z,93.90
2019-01-02T23:51:40.149Z,93.70
2019-01-02T23:54:10.570Z,93.30
2019-01-02T23:56:57.047Z,93.50
2019-01-02T23:59:27.298Z,93.60
